createdAt,value
2018-12-29T00:01:44.926Z,51.33
2018-12-29T00:04:14.780Z,54.67
2018-12-29T00:06:49.642Z,51.97
2018-12-29T00:09:20.587Z,50.57
2018-12-29T00:11:51.224Z,46.40
2018-12-29T00:14:21.487Z,43.70
2018-12-29T00:16:51.694Z,46.37
2018-12-29T00:19:22.027Z,44.70
2018-12-29T00:21:52.882Z,42.50
2018-12-29T00:24:22.422Z,37.97
2018-12-29T00:26:51.693Z,40.03
2018-12-29T00:29:21.766Z,47.60
2018-12-29T00:31:50.784Z,49.20
2018-12-29T00:34:20.399Z,44.53
2018-12-29T00:36:49.719Z,64.70
2018-12-29T00:39:18.970Z,54.10
2018-12-29T00:41:50.835Z,59.30
2018-12-29T00:44:20.892Z,48.60
2018-12-29T00:46:50.387Z,48.97
2018-12-29T00:49:19.634Z,49.07
2018-12-29T00:51:49.164Z,70.27
2018-12-29T00:54:19.258Z,43.17
2018-12-29T00:56:48.904Z,48.67
2018-12-29T00:59:19.567Z,44.40
2018-12-29T01:01:49.207Z,60.77
2018-12-29T01:04:18.148Z,53.23
2018-12-29T01:06:48.478Z,45.87
2018-12-29T01:09:17.777Z,40.23
2018-12-29T01:11:47.872Z,47.60
2018-12-29T01:14:18.581Z,44.83
2018-12-29T01:16:48.732Z,34.20
2018-12-29T01:19:17.785Z,41.93
2018-12-29T01:21:48.799Z,44.83
2018-12-29T01:24:21.470Z,47.80
2018-12-29T01:26:50.633Z,45.60
2018-12-29T01:29:19.823Z,49.87
2018-12-29T01:31:50.990Z,47.63
2018-12-29T01:34:21.427Z,45.37
2018-12-29T01:36:51.020Z,51.17
2018-12-29T01:39:19.737Z,57.00
2018-12-29T01:41:48.961Z,44.60
2018-12-29T01:44:18.107Z,46.23
2018-12-29T01:46:47.962Z,43.90
2018-12-29T01:49:18.944Z,49.70
2018-12-29T01:51:48.477Z,43.53
2018-12-29T01:54:19.344Z,41.63
2018-12-29T01:56:49.333Z,50.27
2018-12-29T01:59:20.398Z,47.83
2018-12-29T02:01:50.605Z,41.80
2018-12-29T02:04:21.365Z,35.03
2018-12-29T02:06:51.975Z,35.37
2018-12-29T02:09:21.798Z,32.67
2018-12-29T02:11:52.505Z,32.87
2018-12-29T02:14:21.709Z,32.70
2018-12-29T02:16:51.161Z,34.83
2018-12-29T02:19:22.330Z,37.00
2018-12-29T02:21:52.763Z,42.03
2018-12-29T02:24:23.458Z,40.80
2018-12-29T02:26:53.092Z,39.27
2018-12-29T02:29:22.550Z,44.50
2018-12-29T02:31:54.472Z,47.13
2018-12-29T02:34:22.977Z,40.43
2018-12-29T02:36:52.221Z,43.33
2018-12-29T02:39:20.937Z,41.97
2018-12-29T02:41:51.927Z,39.97
2018-12-29T02:44:22.278Z,45.40
2018-12-29T02:46:51.464Z,55.77
2018-12-29T02:49:21.497Z,50.23
2018-12-29T02:51:50.358Z,57.87
2018-12-29T02:54:20.309Z,45.67
2018-12-29T02:56:50.557Z,40.73
2018-12-29T02:59:20.237Z,48.13
2018-12-29T03:01:49.655Z,40.50
2018-12-29T03:04:20.197Z,46.70
2018-12-29T03:06:50.263Z,65.20
2018-12-29T03:09:20.550Z,44.73
2018-12-29T03:11:50.568Z,58.40
2018-12-29T03:14:20.112Z,55.70
2018-12-29T03:16:50.244Z,53.93
2018-12-29T03:19:19.700Z,53.70
2018-12-29T03:21:49.376Z,62.37
2018-12-29T03:24:18.330Z,46.93
2018-12-29T03:26:48.333Z,45.30
2018-12-29T03:29:21.393Z,50.27
2018-12-29T03:31:54.782Z,49.93
2018-12-29T03:34:24.559Z,44.33
2018-12-29T03:36:53.675Z,69.30
2018-12-29T03:39:24.516Z,71.57
2018-12-29T03:41:56.106Z,56.13
2018-12-29T03:44:26.013Z,71.17
2018-12-29T03:46:56.060Z,59.50
2018-12-29T03:49:25.940Z,64.13
2018-12-29T03:51:54.343Z,47.93
2018-12-29T03:54:25.622Z,52.17
2018-12-29T03:56:54.803Z,53.40
2018-12-29T03:59:25.851Z,53.00
2018-12-29T04:01:55.104Z,54.73
2018-12-29T04:04:25.382Z,54.63
2018-12-29T04:06:54.145Z,53.00
2018-12-29T04:09:36.487Z,55.50
2018-12-29T04:12:27.714Z,54.70
2018-12-29T04:14:57.125Z,60.47
2018-12-29T04:17:27.132Z,66.03
2018-12-29T04:19:55.523Z,54.90
2018-12-29T04:22:24.732Z,49.20
2018-12-29T04:24:56.561Z,50.23
2018-12-29T04:27:25.340Z,50.57
2018-12-29T04:29:55.936Z,75.53
2018-12-29T04:32:26.111Z,61.63
2018-12-29T04:34:56.748Z,62.97
2018-12-29T04:37:26.205Z,67.93
2018-12-29T04:39:55.393Z,58.37
2018-12-29T04:42:24.531Z,51.03
2018-12-29T04:44:54.073Z,62.60
2018-12-29T04:47:25.251Z,54.37
2018-12-29T04:49:55.888Z,54.67
2018-12-29T04:52:27.219Z,69.40
2018-12-29T04:54:56.698Z,80.60
2018-12-29T04:57:26.175Z,52.80
2018-12-29T04:59:56.236Z,51.70
2018-12-29T05:02:25.623Z,50.50
2018-12-29T05:04:55.234Z,52.10
2018-12-29T05:07:24.155Z,57.87
2018-12-29T05:09:53.203Z,69.50
2018-12-29T05:12:22.516Z,60.13
2018-12-29T05:14:51.945Z,66.93
2018-12-29T05:17:22.877Z,47.23
2018-12-29T05:19:53.450Z,47.37
2018-12-29T05:22:24.716Z,61.90
2018-12-29T05:24:54.250Z,67.47
2018-12-29T05:27:23.958Z,52.37
2018-12-29T05:29:55.089Z,69.33
2018-12-29T05:32:25.209Z,69.83
2018-12-29T05:34:56.423Z,60.83
2018-12-29T05:37:25.652Z,49.63
2018-12-29T05:39:55.931Z,53.73
2018-12-29T05:42:26.936Z,54.77
2018-12-29T05:44:57.043Z,50.57
2018-12-29T05:47:26.318Z,52.70
2018-12-29T05:49:56.175Z,56.07
2018-12-29T05:52:26.579Z,60.73
2018-12-29T05:54:56.706Z,60.87
2018-12-29T05:57:25.860Z,52.83
2018-12-29T05:59:55.471Z,55.90
2018-12-29T06:02:24.846Z,49.43
2018-12-29T06:04:54.628Z,47.83
2018-12-29T06:07:25.601Z,51.60
2018-12-29T06:09:55.086Z,68.43
2018-12-29T06:12:25.501Z,71.37
2018-12-29T06:14:55.281Z,53.57
2018-12-29T06:17:25.953Z,53.90
2018-12-29T06:19:55.048Z,49.50
2018-12-29T06:22:25.238Z,51.90
2018-12-29T06:24:54.878Z,50.70
2018-12-29T06:27:24.968Z,62.73
2018-12-29T06:29:56.581Z,53.20
2018-12-29T06:32:28.105Z,51.50
2018-12-29T06:34:57.167Z,48.67
2018-12-29T06:37:26.348Z,51.23
2018-12-29T06:39:56.865Z,60.77
2018-12-29T06:42:28.063Z,48.43
2018-12-29T06:44:57.298Z,47.63
2018-12-29T06:47:26.353Z,48.97
2018-12-29T06:49:57.353Z,54.97
2018-12-29T06:52:26.903Z,49.00
2018-12-29T06:54:57.753Z,66.97
2018-12-29T06:57:28.113Z,58.80
2018-12-29T06:59:57.941Z,58.40
2018-12-29T07:02:28.006Z,46.27
2018-12-29T07:04:59.337Z,49.07
2018-12-29T07:07:29.377Z,47.13
2018-12-29T07:09:59.384Z,74.77
2018-12-29T07:12:29.093Z,60.67
2018-12-29T07:14:59.769Z,78.03
2018-12-29T07:17:29.274Z,44.73
2018-12-29T07:19:58.759Z,62.30
2018-12-29T07:22:29.209Z,77.07
2018-12-29T07:25:00.193Z,62.70
2018-12-29T07:27:29.858Z,57.63
2018-12-29T07:30:00.593Z,47.70
2018-12-29T07:32:31.603Z,63.03
2018-12-29T07:35:02.240Z,69.17
2018-12-29T07:37:32.146Z,61.70
2018-12-29T07:40:03.225Z,72.83
2018-12-29T07:42:34.068Z,65.17
2018-12-29T07:45:03.769Z,67.20
2018-12-29T07:47:33.503Z,63.43
2018-12-29T07:50:04.068Z,60.00
2018-12-29T07:52:35.053Z,64.47
2018-12-29T07:55:05.253Z,55.80
2018-12-29T07:57:34.563Z,63.27
2018-12-29T08:00:05.017Z,62.10
2018-12-29T08:02:35.083Z,60.37
2018-12-29T08:05:05.898Z,56.40
2018-12-29T08:07:39.581Z,46.40
2018-12-29T08:10:08.493Z,45.20
2018-12-29T08:12:37.877Z,42.37
2018-12-29T08:15:07.391Z,38.80
2018-12-29T08:17:37.672Z,39.90
2018-12-29T08:20:08.188Z,39.10
2018-12-29T08:22:38.468Z,38.70
2018-12-29T08:25:09.577Z,40.23
2018-12-29T08:27:40.712Z,40.70
2018-12-29T08:30:10.619Z,40.40
2018-12-29T08:32:39.878Z,42.13
2018-12-29T08:35:09.991Z,37.77
2018-12-29T08:37:41.056Z,37.57
2018-12-29T08:40:10.265Z,38.80
2018-12-29T08:42:39.883Z,35.27
2018-12-29T08:45:10.031Z,38.23
2018-12-29T08:47:41.170Z,35.77
2018-12-29T08:50:13.280Z,36.37
2018-12-29T08:52:43.420Z,33.90
2018-12-29T08:55:13.037Z,33.47
2018-12-29T08:57:42.362Z,36.83
2018-12-29T09:00:12.170Z,32.83
2018-12-29T09:02:41.962Z,36.77
2018-12-29T09:05:11.523Z,31.43
2018-12-29T09:07:41.993Z,33.57
2018-12-29T09:10:12.100Z,30.87
2018-12-29T09:12:43.798Z,32.17
2018-12-29T09:15:13.111Z,28.77
2018-12-29T09:17:43.706Z,32.13
2018-12-29T09:20:12.693Z,29.13
2018-12-29T09:22:45.562Z,31.63
2018-12-29T09:25:15.573Z,32.10
2018-12-29T09:27:47.505Z,31.67
2018-12-29T09:30:17.766Z,30.27
2018-12-29T09:32:48.216Z,27.77
2018-12-29T09:35:18.607Z,28.60
2018-12-29T09:37:47.707Z,26.13
2018-12-29T09:40:16.976Z,29.40
2018-12-29T09:42:47.268Z,26.90
2018-12-29T09:45:15.771Z,22.10
2018-12-29T09:47:46.125Z,22.03
2018-12-29T09:50:17.822Z,24.90
2018-12-29T09:52:47.382Z,21.60
2018-12-29T09:55:18.588Z,22.23
2018-12-29T09:57:47.240Z,21.00
2018-12-29T10:00:16.611Z,20.70
2018-12-29T10:02:46.325Z,19.83
2018-12-29T10:05:16.110Z,19.10
2018-12-29T10:07:45.544Z,19.70
2018-12-29T10:10:14.282Z,18.97
2018-12-29T10:12:44.143Z,20.00
2018-12-29T10:15:14.275Z,19.03
2018-12-29T10:17:44.865Z,19.17
2018-12-29T10:20:15.232Z,19.90
2018-12-29T10:22:46.413Z,18.77
2018-12-29T10:25:15.635Z,19.60
2018-12-29T10:27:44.857Z,21.40
2018-12-29T10:30:14.968Z,21.93
2018-12-29T10:32:46.108Z,23.27
2018-12-29T10:35:16.287Z,20.90
2018-12-29T10:37:46.380Z,22.33
2018-12-29T10:40:16.888Z,23.23
2018-12-29T10:42:46.768Z,20.57
2018-12-29T10:45:17.582Z,20.70
2018-12-29T10:47:46.740Z,20.87
2018-12-29T10:50:16.905Z,21.40
2018-12-29T10:52:47.463Z,19.67
2018-12-29T10:55:18.067Z,19.83
2018-12-29T10:57:48.929Z,20.60
2018-12-29T11:00:18.232Z,20.33
2018-12-29T11:02:48.341Z,20.40
2018-12-29T11:05:17.608Z,20.90
2018-12-29T11:07:48.007Z,18.67
2018-12-29T11:10:18.259Z,19.57
2018-12-29T11:12:48.373Z,20.10
2018-12-29T11:15:20.293Z,19.73
2018-12-29T11:17:53.382Z,20.47
2018-12-29T11:20:23.033Z,18.97
2018-12-29T11:22:52.403Z,19.63
2018-12-29T11:25:23.486Z,18.77
2018-12-29T11:27:53.729Z,20.17
2018-12-29T11:30:23.559Z,18.67
2018-12-29T11:32:54.011Z,18.70
2018-12-29T11:35:28.797Z,19.43
2018-12-29T11:37:55.981Z,19.57
2018-12-29T11:40:26.590Z,18.63
2018-12-29T11:42:56.668Z,18.43
2018-12-29T11:45:27.036Z,17.93
2018-12-29T11:47:58.690Z,18.13
2018-12-29T11:50:27.885Z,18.03
2018-12-29T11:53:00.255Z,18.17
2018-12-29T11:55:28.758Z,19.10
2018-12-29T11:57:58.838Z,19.00
2018-12-29T12:00:29.658Z,19.00
2018-12-29T12:02:59.775Z,17.67
2018-12-29T12:05:32.217Z,18.03
2018-12-29T12:08:02.613Z,18.63
2018-12-29T12:10:33.440Z,19.70
2018-12-29T12:13:04.503Z,20.07
2018-12-29T12:15:34.362Z,19.33
2018-12-29T12:18:04.480Z,23.40
2018-12-29T12:20:36.454Z,19.53
2018-12-29T12:23:07.950Z,23.93
2018-12-29T12:25:37.747Z,24.60
2018-12-29T12:28:07.920Z,22.00
2018-12-29T12:30:41.391Z,23.60
2018-12-29T12:33:11.254Z,20.13
2018-12-29T12:35:43.435Z,21.70
2018-12-29T12:38:13.803Z,17.23
2018-12-29T12:40:45.311Z,16.97
2018-12-29T12:43:16.233Z,21.17
2018-12-29T12:45:48.133Z,17.57
2018-12-29T12:48:19.015Z,17.13
2018-12-29T12:50:49.276Z,17.67
2018-12-29T12:53:19.595Z,18.57
2018-12-29T12:55:50.128Z,17.63
2018-12-29T12:58:19.422Z,19.20
2018-12-29T13:00:50.746Z,21.00
2018-12-29T13:03:20.949Z,18.70
2018-12-29T13:05:50.520Z,18.47
2018-12-29T13:08:20.460Z,34.63
2018-12-29T13:10:50.097Z,22.53
2018-12-29T13:13:21.504Z,22.43
2018-12-29T13:15:53.680Z,18.47
2018-12-29T13:18:22.918Z,18.77
2018-12-29T13:20:51.840Z,19.23
2018-12-29T13:23:21.155Z,19.13
2018-12-29T13:25:51.609Z,18.43
2018-12-29T13:28:22.605Z,19.07
2018-12-29T13:30:52.775Z,20.37
2018-12-29T13:33:23.569Z,22.07
2018-12-29T13:35:53.834Z,21.63
2018-12-29T13:38:23.660Z,17.47
2018-12-29T13:40:52.977Z,17.97
2018-12-29T13:43:24.950Z,19.90
2018-12-29T13:45:54.146Z,19.10
2018-12-29T13:48:26.103Z,21.83
2018-12-29T13:50:57.441Z,18.97
2018-12-29T13:53:28.750Z,16.97
2018-12-29T13:55:58.759Z,17.40
2018-12-29T13:58:28.839Z,16.70
2018-12-29T14:00:59.936Z,20.63
2018-12-29T14:03:29.817Z,17.83
2018-12-29T14:06:00.129Z,18.13
2018-12-29T14:08:30.244Z,19.20
2018-12-29T14:10:59.410Z,19.23
2018-12-29T14:13:29.803Z,18.87
2018-12-29T14:16:00.372Z,22.03
2018-12-29T14:18:31.899Z,21.07
2018-12-29T14:21:02.026Z,19.53
2018-12-29T14:23:32.451Z,23.80
2018-12-29T14:26:04.550Z,23.37
2018-12-29T14:28:35.584Z,20.77
2018-12-29T14:31:06.641Z,22.30
2018-12-29T14:33:37.494Z,22.37
2018-12-29T14:36:08.619Z,19.60
2018-12-29T14:38:38.864Z,19.20
2018-12-29T14:41:09.797Z,19.53
2018-12-29T14:43:40.417Z,18.03
2018-12-29T14:46:10.562Z,17.80
2018-12-29T14:48:40.300Z,18.37
2018-12-29T14:51:11.849Z,18.53
2018-12-29T14:53:41.924Z,17.43
2018-12-29T14:56:12.069Z,21.50
2018-12-29T14:58:42.932Z,18.13
2018-12-29T15:01:14.559Z,18.97
2018-12-29T15:03:49.384Z,23.33
2018-12-29T15:06:23.740Z,20.33
2018-12-29T15:08:53.924Z,19.20
2018-12-29T15:11:24.460Z,20.43
2018-12-29T15:13:53.768Z,19.40
2018-12-29T15:16:25.809Z,21.00
2018-12-29T15:18:56.785Z,18.93
2018-12-29T15:21:27.789Z,22.17
2018-12-29T15:24:00.209Z,26.63
2018-12-29T15:26:32.262Z,22.83
2018-12-29T15:29:01.455Z,21.63
2018-12-29T15:31:32.518Z,21.20
2018-12-29T15:34:03.954Z,24.03
2018-12-29T15:36:34.547Z,26.57
2018-12-29T15:39:06.750Z,24.33
2018-12-29T15:41:37.291Z,26.43
2018-12-29T15:44:09.019Z,28.97
2018-12-29T15:46:39.857Z,26.27
2018-12-29T15:49:10.985Z,21.03
2018-12-29T15:51:40.794Z,27.17
2018-12-29T15:54:10.669Z,24.20
2018-12-29T15:56:41.743Z,21.83
2018-12-29T15:59:13.236Z,19.57
2018-12-29T16:01:43.941Z,22.00
2018-12-29T16:04:15.746Z,25.77
2018-12-29T16:06:47.512Z,33.13
2018-12-29T16:09:19.551Z,18.50
2018-12-29T16:11:49.987Z,21.17
2018-12-29T16:14:24.002Z,23.37
2018-12-29T16:16:54.372Z,25.27
2018-12-29T16:19:26.810Z,23.43
2018-12-29T16:21:56.252Z,34.80
2018-12-29T16:24:27.406Z,24.80
2018-12-29T16:26:56.457Z,21.60
2018-12-29T16:29:27.279Z,21.50
2018-12-29T16:31:57.639Z,21.00
2018-12-29T16:34:28.020Z,24.03
2018-12-29T16:36:58.082Z,25.67
2018-12-29T16:39:28.532Z,25.37
2018-12-29T16:41:58.189Z,24.80
2018-12-29T16:44:28.015Z,27.87
2018-12-29T16:46:58.267Z,27.63
2018-12-29T16:49:28.972Z,26.93
2018-12-29T16:52:00.538Z,26.97
2018-12-29T16:54:30.672Z,32.27
2018-12-29T16:57:01.709Z,26.90
2018-12-29T16:59:34.687Z,25.43
2018-12-29T17:02:04.502Z,22.33
2018-12-29T17:04:34.304Z,21.20
2018-12-29T17:07:04.223Z,21.73
2018-12-29T17:09:35.384Z,22.40
2018-12-29T17:12:08.880Z,23.50
2018-12-29T17:14:39.080Z,22.63
2018-12-29T17:17:09.510Z,22.60
2018-12-29T17:19:42.193Z,32.33
2018-12-29T17:22:12.814Z,24.30
2018-12-29T17:24:42.527Z,25.90
2018-12-29T17:27:12.682Z,23.10
2018-12-29T17:29:42.892Z,19.87
2018-12-29T17:32:12.852Z,20.57
2018-12-29T17:34:44.417Z,19.47
2018-12-29T17:37:15.058Z,20.20
2018-12-29T17:39:46.334Z,21.87
2018-12-29T17:42:15.866Z,23.90
2018-12-29T17:44:44.863Z,21.40
2018-12-29T17:47:15.715Z,25.77
2018-12-29T17:49:46.803Z,27.77
2018-12-29T17:52:16.648Z,21.10
2018-12-29T17:54:46.610Z,20.10
2018-12-29T17:57:17.027Z,25.43
2018-12-29T17:59:47.310Z,27.40
2018-12-29T18:02:16.297Z,30.20
2018-12-29T18:04:45.649Z,64.30
2018-12-29T18:07:15.712Z,29.83
2018-12-29T18:09:45.204Z,36.20
2018-12-29T18:12:15.362Z,29.40
2018-12-29T18:14:46.427Z,31.90
2018-12-29T18:17:18.038Z,22.07
2018-12-29T18:19:48.074Z,24.70
2018-12-29T18:22:19.920Z,32.83
2018-12-29T18:24:50.740Z,32.83
2018-12-29T18:27:20.651Z,26.47
2018-12-29T18:29:55.989Z,25.53
2018-12-29T18:32:25.907Z,25.83
2018-12-29T18:34:58.015Z,23.07
2018-12-29T18:37:29.466Z,22.70
2018-12-29T18:39:59.532Z,22.70
2018-12-29T18:42:31.707Z,21.57
2018-12-29T18:45:02.052Z,22.27
2018-12-29T18:47:31.131Z,24.73
2018-12-29T18:50:01.385Z,25.03
2018-12-29T18:52:30.742Z,33.27
2018-12-29T18:55:01.735Z,22.70
2018-12-29T18:57:31.835Z,34.20
2018-12-29T19:00:02.204Z,41.87
2018-12-29T19:02:33.016Z,40.87
2018-12-29T19:05:01.556Z,30.10
2018-12-29T19:07:31.763Z,20.10
2018-12-29T19:10:02.801Z,25.43
2018-12-29T19:12:33.375Z,23.43
2018-12-29T19:15:04.598Z,26.60
2018-12-29T19:17:35.094Z,30.23
2018-12-29T19:20:06.754Z,33.63
2018-12-29T19:22:36.091Z,33.07
2018-12-29T19:25:06.318Z,38.43
2018-12-29T19:27:39.447Z,46.53
2018-12-29T19:30:08.709Z,39.70
2018-12-29T19:32:39.859Z,46.07
2018-12-29T19:35:09.716Z,30.67
2018-12-29T19:37:40.175Z,45.80
2018-12-29T19:40:11.346Z,29.10
2018-12-29T19:42:41.336Z,33.60
2018-12-29T19:45:12.658Z,50.27
2018-12-29T19:47:43.130Z,39.83
2018-12-29T19:50:13.622Z,43.00
2018-12-29T19:52:43.943Z,31.73
2018-12-29T19:55:14.783Z,31.93
2018-12-29T19:57:45.103Z,36.90
2018-12-29T20:00:16.578Z,31.37
2018-12-29T20:02:45.993Z,30.03
2018-12-29T20:05:16.231Z,28.37
2018-12-29T20:07:47.494Z,37.70
2018-12-29T20:10:20.248Z,37.27
2018-12-29T20:12:50.970Z,38.50
2018-12-29T20:15:22.275Z,29.63
2018-12-29T20:17:52.766Z,27.67
2018-12-29T20:20:26.276Z,27.90
2018-12-29T20:22:58.566Z,26.03
2018-12-29T20:25:28.935Z,28.07
2018-12-29T20:27:58.640Z,35.73
2018-12-29T20:30:28.923Z,43.57
2018-12-29T20:33:00.568Z,44.70
2018-12-29T20:35:30.605Z,38.87
2018-12-29T20:38:01.129Z,45.90
2018-12-29T20:40:32.832Z,46.43
2018-12-29T20:43:01.864Z,51.83
2018-12-29T20:45:31.753Z,42.77
2018-12-29T20:48:01.331Z,38.20
2018-12-29T20:50:31.206Z,35.60
2018-12-29T20:53:03.114Z,31.73
2018-12-29T20:55:35.016Z,38.83
2018-12-29T20:58:05.063Z,33.17
2018-12-29T21:00:37.960Z,38.47
2018-12-29T21:03:08.505Z,27.13
2018-12-29T21:05:37.724Z,26.37
2018-12-29T21:08:07.168Z,30.83
2018-12-29T21:10:36.944Z,35.93
2018-12-29T21:13:07.204Z,27.00
2018-12-29T21:15:36.556Z,28.63
2018-12-29T21:18:06.033Z,26.70
2018-12-29T21:20:36.523Z,28.23
2018-12-29T21:23:06.553Z,28.43
2018-12-29T21:25:36.325Z,30.83
2018-12-29T21:28:06.708Z,27.73
2018-12-29T21:30:38.649Z,27.10
2018-12-29T21:33:17.075Z,27.17
2018-12-29T21:35:48.951Z,27.40
2018-12-29T21:38:18.453Z,36.93
2018-12-29T21:40:49.745Z,32.93
2018-12-29T21:43:19.443Z,37.60
2018-12-29T21:45:49.316Z,30.33
2018-12-29T21:48:19.008Z,33.27
2018-12-29T21:50:50.586Z,31.97
2018-12-29T21:53:20.288Z,21.23
2018-12-29T21:55:50.354Z,22.00
2018-12-29T21:58:20.874Z,19.57
2018-12-29T22:00:52.606Z,19.77
2018-12-29T22:03:24.258Z,22.67
2018-12-29T22:05:57.873Z,20.37
2018-12-29T22:08:31.090Z,19.80
2018-12-29T22:11:03.641Z,19.40
2018-12-29T22:13:33.274Z,19.67
2018-12-29T22:16:06.156Z,22.60
2018-12-29T22:18:36.203Z,21.03
2018-12-29T22:21:06.199Z,24.00
2018-12-29T22:23:38.937Z,23.03
2018-12-29T22:26:08.536Z,21.00
2018-12-29T22:28:38.899Z,17.80
2018-12-29T22:31:12.017Z,18.00
2018-12-29T22:33:41.793Z,17.93
2018-12-29T22:36:10.842Z,16.80
2018-12-29T22:38:40.744Z,17.53
2018-12-29T22:41:09.522Z,18.13
2018-12-29T22:43:38.005Z,16.80
2018-12-29T22:46:07.625Z,17.07
2018-12-29T22:48:37.561Z,18.07
2018-12-29T22:51:08.086Z,17.30
2018-12-29T22:53:39.425Z,18.47
2018-12-29T22:56:09.827Z,17.67
2018-12-29T22:58:41.225Z,18.53
2018-12-29T23:01:11.228Z,16.93
2018-12-29T23:03:43.396Z,18.13
2018-12-29T23:06:15.696Z,18.77
2018-12-29T23:08:44.897Z,21.43
2018-12-29T23:11:14.704Z,20.80
2018-12-29T23:13:44.169Z,20.23
2018-12-29T23:16:14.783Z,21.80
2018-12-29T23:18:45.178Z,23.63
2018-12-29T23:21:15.075Z,23.73
2018-12-29T23:23:45.654Z,24.63
2018-12-29T23:26:16.266Z,21.43
2018-12-29T23:28:45.864Z,20.23
2018-12-29T23:31:16.284Z,23.47
2018-12-29T23:33:46.115Z,23.97
2018-12-29T23:36:16.821Z,28.10
2018-12-29T23:38:45.927Z,22.73
2018-12-29T23:41:19.164Z,20.53
2018-12-29T23:43:48.686Z,20.30
2018-12-29T23:46:19.215Z,19.83
2018-12-29T23:48:50.720Z,21.97
2018-12-29T23:51:22.311Z,20.63
2018-12-29T23:53:53.400Z,22.13
2018-12-29T23:56:23.603Z,18.23
2018-12-29T23:58:52.962Z,18.67
